CMA CGM Aristote — MRPN4 — position and weather

sailwx.info

Track history (hours):
 
Tides and Currents Weather Stations Pressure Air Temp Water Temp Dewpoint Dewpoint Depression Visibility Wind Speed Wind Dir Waves Ship Positions

CMA CGM Aristote

Last reported at 2016-Dec-10 01:17 UTC. Time now 2016-Dec-10 05:08 UTC.
Position N 39°24' W 000°16'.

Length 170 m; draft 7 m.

Type: Ship (hazmat cat A). MMSI: 235054581.

Date/timePositionNaut miles runAvg speedWind from/ knotsBaromVisibWave heightAir tempDewpointWater temp
2016-Dec-10 01:17N 39°24' W 000°16'4 5.5
2016-Dec-10 00:33N 39°25' W 000°11'6214.9
2016-Dec-09 20:22N 39°17' E 001°09'2714.6
2016-Dec-09 18:33N 39°14' E 001°43'1514.9
2016-Dec-09 17:33N 39°12' E 002°02'1514.9
2016-Dec-09 16:33N 39°07' E 002°21'1716.9
2016-Dec-09 15:34N 39°02' E 002°41'1716.8
2016-Dec-09 14:33N 38°58' E 003°02'1515.1
2016-Dec-09 13:33N 38°56' E 003°21'51312.2
2016-Dec-07 19:31N 36°46' E 013°49'1212.0
2016-Dec-07 18:33N 36°41' E 014°02'1212.0
2016-Dec-07 17:33N 36°35' E 014°15'1212.0
2016-Dec-07 16:33N 36°29' E 014°28'1212.0
2016-Dec-07 15:33N 36°27' E 014°43'88017.9
2016-Dec-05 14:31N 35°50' E 032°52'  
Track history (hours):
 
Tides and Currents Weather Stations Pressure Air Temp Water Temp Dewpoint Dewpoint Depression Visibility Wind Speed Wind Dir Waves Ship Positions

CMA CGM Aristote

Last reported at 2016-Dec-10 01:17 UTC. Time now 2016-Dec-10 05:08 UTC.
Position N 39°24' W 000°16'.

Length 170 m; draft 7 m.

Type: Ship (hazmat cat A). MMSI: 235054581.

Date/timePositionNaut miles runAvg speedWind from/ knotsBaromVisibWave heightAir tempDewpointWater temp
2016-Dec-10 01:17N 39°24' W 000°16'4 5.5
2016-Dec-10 00:33N 39°25' W 000°11'6214.9
2016-Dec-09 20:22N 39°17' E 001°09'2714.6
2016-Dec-09 18:33N 39°14' E 001°43'1514.9
2016-Dec-09 17:33N 39°12' E 002°02'1514.9
2016-Dec-09 16:33N 39°07' E 002°21'1716.9
2016-Dec-09 15:34N 39°02' E 002°41'1716.8
2016-Dec-09 14:33N 38°58' E 003°02'1515.1
2016-Dec-09 13:33N 38°56' E 003°21'51312.2
2016-Dec-07 19:31N 36°46' E 013°49'1212.0
2016-Dec-07 18:33N 36°41' E 014°02'1212.0
2016-Dec-07 17:33N 36°35' E 014°15'1212.0
2016-Dec-07 16:33N 36°29' E 014°28'1212.0
2016-Dec-07 15:33N 36°27' E 014°43'88017.9
2016-Dec-05 14:31N 35°50' E 032°52'  

Dump ship's entire track history